sensor_id;sensor_type;location;lat;lon;timestamp;P1;durP1;ratioP1;P2;durP2;ratioP2
70761;SDS011;58360;0.000;0.000;2023-02-03T00:00:36;16.10;;;4.03;;
70761;SDS011;58360;0.000;0.000;2023-02-03T00:03:02;13.32;;;3.75;;
70761;SDS011;58360;0.000;0.000;2023-02-03T00:05:29;15.13;;;3.72;;
70761;SDS011;58360;0.000;0.000;2023-02-03T00:07:55;15.45;;;4.00;;
70761;SDS011;58360;0.000;0.000;2023-02-03T00:10:22;15.45;;;3.60;;
70761;SDS011;58360;0.000;0.000;2023-02-03T00:12:48;12.57;;;3.08;;
70761;SDS011;58360;0.000;0.000;2023-02-03T00:15:14;15.50;;;3.30;;
70761;SDS011;58360;0.000;0.000;2023-02-03T00:17:41;12.43;;;3.88;;
70761;SDS011;58360;0.000;0.000;2023-02-03T00:20:07;13.38;;;3.85;;
70761;SDS011;58360;0.000;0.000;2023-02-03T00:22:33;18.02;;;3.80;;
70761;SDS011;58360;0.000;0.000;2023-02-03T00:24:59;9.25;;;3.58;;
70761;SDS011;58360;0.000;0.000;2023-02-03T00:27:25;15.80;;;3.58;;
70761;SDS011;58360;0.000;0.000;2023-02-03T00:29:51;12.80;;;3.78;;
70761;SDS011;58360;0.000;0.000;2023-02-03T00:32:16;10.02;;;3.45;;
70761;SDS011;58360;0.000;0.000;2023-02-03T00:34:42;12.50;;;3.60;;
70761;SDS011;58360;0.000;0.000;2023-02-03T00:37:08;16.60;;;5.00;;
70761;SDS011;58360;0.000;0.000;2023-02-03T00:39:35;15.15;;;4.10;;
70761;SDS011;58360;0.000;0.000;2023-02-03T00:42:02;14.98;;;4.65;;
70761;SDS011;58360;0.000;0.000;2023-02-03T00:44:28;9.15;;;3.90;;
70761;SDS011;58360;0.000;0.000;2023-02-03T00:46:54;15.85;;;4.03;;
70761;SDS011;58360;0.000;0.000;2023-02-03T00:49:20;15.30;;;4.47;;
70761;SDS011;58360;0.000;0.000;2023-02-03T00:51:45;14.38;;;3.90;;
70761;SDS011;58360;0.000;0.000;2023-02-03T00:54:11;14.07;;;4.40;;
70761;SDS011;58360;0.000;0.000;2023-02-03T00:56:37;19.30;;;4.78;;
70761;SDS011;58360;0.000;0.000;2023-02-03T00:59:04;12.45;;;4.38;;
70761;SDS011;58360;0.000;0.000;2023-02-03T01:01:30;13.63;;;4.10;;
70761;SDS011;58360;0.000;0.000;2023-02-03T01:03:56;15.68;;;4.90;;
70761;SDS011;58360;0.000;0.000;2023-02-03T01:06:23;13.68;;;3.97;;
70761;SDS011;58360;0.000;0.000;2023-02-03T01:08:49;16.42;;;4.30;;
70761;SDS011;58360;0.000;0.000;2023-02-03T01:11:19;14.52;;;4.70;;
70761;SDS011;58360;0.000;0.000;2023-02-03T01:13:49;18.13;;;4.07;;
70761;SDS011;58360;0.000;0.000;2023-02-03T01:16:16;15.02;;;3.67;;
70761;SDS011;58360;0.000;0.000;2023-02-03T01:18:43;12.77;;;3.72;;
70761;SDS011;58360;0.000;0.000;2023-02-03T01:21:11;15.77;;;3.85;;
70761;SDS011;58360;0.000;0.000;2023-02-03T01:23:39;12.98;;;3.83;;
70761;SDS011;58360;0.000;0.000;2023-02-03T01:26:06;18.17;;;4.32;;
70761;SDS011;58360;0.000;0.000;2023-02-03T01:28:34;13.65;;;3.80;;
70761;SDS011;58360;0.000;0.000;2023-02-03T01:31:10;17.38;;;3.72;;
70761;SDS011;58360;0.000;0.000;2023-02-03T01:33:38;16.80;;;3.88;;
70761;SDS011;58360;0.000;0.000;2023-02-03T01:36:10;15.40;;;3.63;;
70761;SDS011;58360;0.000;0.000;2023-02-03T01:38:36;12.25;;;3.60;;
70761;SDS011;58360;0.000;0.000;2023-02-03T01:41:04;11.63;;;3.35;;
70761;SDS011;58360;0.000;0.000;2023-02-03T01:43:32;16.48;;;3.63;;
70761;SDS011;58360;0.000;0.000;2023-02-03T01:46:39;9.65;;;3.22;;
70761;SDS011;58360;0.000;0.000;2023-02-03T01:51:34;13.50;;;3.17;;
70761;SDS011;58360;0.000;0.000;2023-02-03T01:54:02;15.85;;;3.53;;
70761;SDS011;58360;0.000;0.000;2023-02-03T01:56:30;12.30;;;3.42;;
70761;SDS011;58360;0.000;0.000;2023-02-03T01:58:59;14.85;;;3.40;;
70761;SDS011;58360;0.000;0.000;2023-02-03T02:01:25;15.05;;;3.53;;
70761;SDS011;58360;0.000;0.000;2023-02-03T02:03:55;11.30;;;2.80;;
70761;SDS011;58360;0.000;0.000;2023-02-03T02:06:23;13.90;;;3.10;;
70761;SDS011;58360;0.000;0.000;2023-02-03T02:08:50;11.70;;;3.58;;
70761;SDS011;58360;0.000;0.000;2023-02-03T02:11:17;11.48;;;2.97;;
70761;SDS011;58360;0.000;0.000;2023-02-03T02:13:47;12.30;;;2.80;;
70761;SDS011;58360;0.000;0.000;2023-02-03T02:16:21;8.75;;;2.88;;
70761;SDS011;58360;0.000;0.000;2023-02-03T02:24:58;10.05;;;3.13;;
70761;SDS011;58360;0.000;0.000;2023-02-03T02:28:09;14.25;;;2.92;;
70761;SDS011;58360;0.000;0.000;2023-02-03T02:33:41;11.43;;;2.80;;
70761;SDS011;58360;0.000;0.000;2023-02-03T02:38:55;16.35;;;3.22;;
70761;SDS011;58360;0.000;0.000;2023-02-03T02:41:51;9.57;;;2.83;;
70761;SDS011;58360;0.000;0.000;2023-02-03T02:44:23;13.95;;;2.50;;
70761;SDS011;58360;0.000;0.000;2023-02-03T02:49:31;10.13;;;3.05;;
70761;SDS011;58360;0.000;0.000;2023-02-03T02:52:04;10.73;;;2.70;;
70761;SDS011;58360;0.000;0.000;2023-02-03T02:54:32;11.27;;;2.40;;
70761;SDS011;58360;0.000;0.000;2023-02-03T02:57:02;14.02;;;3.15;;
70761;SDS011;58360;0.000;0.000;2023-02-03T02:59:30;11.40;;;3.30;;
70761;SDS011;58360;0.000;0.000;2023-02-03T03:01:56;12.27;;;2.90;;
70761;SDS011;58360;0.000;0.000;2023-02-03T03:04:23;14.82;;;2.47;;
70761;SDS011;58360;0.000;0.000;2023-02-03T03:06:56;17.38;;;3.05;;
70761;SDS011;58360;0.000;0.000;2023-02-03T03:09:30;11.85;;;2.38;;
70761;SDS011;58360;0.000;0.000;2023-02-03T03:12:11;8.98;;;2.63;;
70761;SDS011;58360;0.000;0.000;2023-02-03T03:14:38;10.10;;;2.28;;
70761;SDS011;58360;0.000;0.000;2023-02-03T03:17:09;10.23;;;2.20;;
70761;SDS011;58360;0.000;0.000;2023-02-03T03:19:43;14.15;;;2.40;;
70761;SDS011;58360;0.000;0.000;2023-02-03T03:22:14;12.20;;;2.92;;
70761;SDS011;58360;0.000;0.000;2023-02-03T03:24:49;12.63;;;3.20;;
70761;SDS011;58360;0.000;0.000;2023-02-03T03:27:23;12.93;;;2.58;;
70761;SDS011;58360;0.000;0.000;2023-02-03T03:29:58;8.30;;;2.60;;
70761;SDS011;58360;0.000;0.000;2023-02-03T03:32:26;7.68;;;2.08;;
70761;SDS011;58360;0.000;0.000;2023-02-03T03:34:54;12.48;;;2.58;;
70761;SDS011;58360;0.000;0.000;2023-02-03T03:37:28;12.88;;;2.53;;
70761;SDS011;58360;0.000;0.000;2023-02-03T03:40:09;11.57;;;2.75;;
70761;SDS011;58360;0.000;0.000;2023-02-03T03:50:48;11.40;;;2.47;;
70761;SDS011;58360;0.000;0.000;2023-02-03T03:53:22;9.25;;;2.60;;
70761;SDS011;58360;0.000;0.000;2023-02-03T03:55:50;10.68;;;2.20;;
70761;SDS011;58360;0.000;0.000;2023-02-03T03:58:19;11.50;;;2.70;;
70761;SDS011;58360;0.000;0.000;2023-02-03T04:00:49;10.25;;;3.30;;
70761;SDS011;58360;0.000;0.000;2023-02-03T04:03:20;11.35;;;2.13;;
70761;SDS011;58360;0.000;0.000;2023-02-03T04:05:48;10.82;;;3.03;;
70761;SDS011;58360;0.000;0.000;2023-02-03T04:08:14;11.82;;;2.58;;
70761;SDS011;58360;0.000;0.000;2023-02-03T04:10:40;11.00;;;2.70;;
70761;SDS011;58360;0.000;0.000;2023-02-03T04:13:07;11.38;;;2.38;;
70761;SDS011;58360;0.000;0.000;2023-02-03T04:15:35;11.00;;;2.20;;
70761;SDS011;58360;0.000;0.000;2023-02-03T04:18:01;13.35;;;2.95;;
70761;SDS011;58360;0.000;0.000;2023-02-03T04:20:27;11.75;;;2.50;;
70761;SDS011;58360;0.000;0.000;2023-02-03T04:22:54;10.30;;;2.30;;
70761;SDS011;58360;0.000;0.000;2023-02-03T04:25:21;13.07;;;2.13;;
70761;SDS011;58360;0.000;0.000;2023-02-03T04:27:47;11.25;;;2.30;;
70761;SDS011;58360;0.000;0.000;2023-02-03T04:30:12;10.60;;;2.28;;
70761;SDS011;58360;0.000;0.000;2023-02-03T04:32:39;8.15;;;2.47;;
70761;SDS011;58360;0.000;0.000;2023-02-03T04:35:05;9.45;;;2.28;;
70761;SDS011;58360;0.000;0.000;2023-02-03T04:37:31;9.43;;;1.70;;
70761;SDS011;58360;0.000;0.000;2023-02-03T04:39:58;10.52;;;2.35;;
70761;SDS011;58360;0.000;0.000;2023-02-03T04:42:23;9.98;;;1.95;;
70761;SDS011;58360;0.000;0.000;2023-02-03T04:44:50;9.15;;;2.10;;
70761;SDS011;58360;0.000;0.000;2023-02-03T04:47:16;8.43;;;2.83;;
70761;SDS011;58360;0.000;0.000;2023-02-03T04:49:42;7.70;;;2.25;;
70761;SDS011;58360;0.000;0.000;2023-02-03T04:52:09;12.18;;;2.20;;
70761;SDS011;58360;0.000;0.000;2023-02-03T04:54:35;6.75;;;2.17;;
70761;SDS011;58360;0.000;0.000;2023-02-03T04:57:01;12.75;;;2.75;;
70761;SDS011;58360;0.000;0.000;2023-02-03T04:59:27;10.57;;;2.53;;
70761;SDS011;58360;0.000;0.000;2023-02-03T05:01:52;9.48;;;2.35;;
70761;SDS011;58360;0.000;0.000;2023-02-03T05:04:18;10.45;;;1.88;;
70761;SDS011;58360;0.000;0.000;2023-02-03T05:06:44;10.93;;;2.10;;
70761;SDS011;58360;0.000;0.000;2023-02-03T05:09:10;7.95;;;2.00;;
70761;SDS011;58360;0.000;0.000;2023-02-03T05:11:35;11.43;;;2.20;;
70761;SDS011;58360;0.000;0.000;2023-02-03T05:14:01;10.63;;;2.65;;
70761;SDS011;58360;0.000;0.000;2023-02-03T05:16:27;7.20;;;2.03;;
70761;SDS011;58360;0.000;0.000;2023-02-03T05:18:53;7.20;;;1.90;;
70761;SDS011;58360;0.000;0.000;2023-02-03T05:21:18;11.48;;;2.30;;
70761;SDS011;58360;0.000;0.000;2023-02-03T05:23:44;12.38;;;2.40;;
70761;SDS011;58360;0.000;0.000;2023-02-03T05:26:10;9.63;;;2.30;;
70761;SDS011;58360;0.000;0.000;2023-02-03T05:28:36;10.52;;;1.90;;
70761;SDS011;58360;0.000;0.000;2023-02-03T05:31:01;5.80;;;1.90;;
70761;SDS011;58360;0.000;0.000;2023-02-03T05:33:28;8.23;;;1.90;;
70761;SDS011;58360;0.000;0.000;2023-02-03T05:35:54;8.68;;;2.17;;
70761;SDS011;58360;0.000;0.000;2023-02-03T05:38:20;7.93;;;2.22;;
70761;SDS011;58360;0.000;0.000;2023-02-03T05:40:49;11.30;;;1.70;;
70761;SDS011;58360;0.000;0.000;2023-02-03T05:43:34;7.78;;;1.80;;
70761;SDS011;58360;0.000;0.000;2023-02-03T05:46:01;10.30;;;1.80;;
70761;SDS011;58360;0.000;0.000;2023-02-03T05:48:30;15.82;;;2.47;;
70761;SDS011;58360;0.000;0.000;2023-02-03T05:50:56;13.73;;;2.50;;
70761;SDS011;58360;0.000;0.000;2023-02-03T05:53:22;9.60;;;2.63;;
70761;SDS011;58360;0.000;0.000;2023-02-03T05:55:48;10.75;;;1.88;;
70761;SDS011;58360;0.000;0.000;2023-02-03T05:58:14;5.47;;;1.95;;
70761;SDS011;58360;0.000;0.000;2023-02-03T06:00:40;7.45;;;1.65;;
70761;SDS011;58360;0.000;0.000;2023-02-03T06:03:05;6.72;;;1.60;;
70761;SDS011;58360;0.000;0.000;2023-02-03T06:05:32;9.38;;;1.88;;
70761;SDS011;58360;0.000;0.000;2023-02-03T06:07:58;8.80;;;1.70;;
70761;SDS011;58360;0.000;0.000;2023-02-03T06:10:25;5.90;;;1.83;;
70761;SDS011;58360;0.000;0.000;2023-02-03T06:12:51;9.57;;;2.28;;
70761;SDS011;58360;0.000;0.000;2023-02-03T06:15:17;9.35;;;2.00;;
70761;SDS011;58360;0.000;0.000;2023-02-03T06:17:46;12.98;;;1.98;;
70761;SDS011;58360;0.000;0.000;2023-02-03T06:20:13;4.72;;;1.75;;
70761;SDS011;58360;0.000;0.000;2023-02-03T06:22:40;8.27;;;1.90;;
70761;SDS011;58360;0.000;0.000;2023-02-03T06:25:06;4.43;;;1.70;;
70761;SDS011;58360;0.000;0.000;2023-02-03T06:27:33;5.40;;;1.83;;
70761;SDS011;58360;0.000;0.000;2023-02-03T06:29:58;9.60;;;2.10;;
70761;SDS011;58360;0.000;0.000;2023-02-03T06:32:24;9.30;;;2.08;;
70761;SDS011;58360;0.000;0.000;2023-02-03T06:34:50;5.82;;;1.55;;
70761;SDS011;58360;0.000;0.000;2023-02-03T06:37:16;11.38;;;1.95;;
70761;SDS011;58360;0.000;0.000;2023-02-03T06:39:41;9.57;;;2.17;;
70761;SDS011;58360;0.000;0.000;2023-02-03T06:42:07;9.48;;;1.90;;
70761;SDS011;58360;0.000;0.000;2023-02-03T06:44:33;10.65;;;2.33;;
70761;SDS011;58360;0.000;0.000;2023-02-03T06:46:59;5.00;;;1.52;;
70761;SDS011;58360;0.000;0.000;2023-02-03T06:49:26;7.30;;;1.95;;
70761;SDS011;58360;0.000;0.000;2023-02-03T06:51:52;8.85;;;2.08;;
70761;SDS011;58360;0.000;0.000;2023-02-03T06:54:18;9.02;;;1.83;;
70761;SDS011;58360;0.000;0.000;2023-02-03T06:56:44;10.32;;;1.80;;
70761;SDS011;58360;0.000;0.000;2023-02-03T06:59:10;9.52;;;1.80;;
70761;SDS011;58360;0.000;0.000;2023-02-03T07:01:36;5.90;;;1.73;;
70761;SDS011;58360;0.000;0.000;2023-02-03T07:04:02;9.52;;;2.17;;
70761;SDS011;58360;0.000;0.000;2023-02-03T07:06:28;9.68;;;2.35;;
70761;SDS011;58360;0.000;0.000;2023-02-03T07:08:57;11.20;;;1.95;;
70761;SDS011;58360;0.000;0.000;2023-02-03T07:11:25;10.13;;;2.33;;
70761;SDS011;58360;0.000;0.000;2023-02-03T07:13:51;11.48;;;2.50;;
70761;SDS011;58360;0.000;0.000;2023-02-03T07:16:17;9.70;;;3.22;;
70761;SDS011;58360;0.000;0.000;2023-02-03T07:18:43;10.10;;;1.90;;
70761;SDS011;58360;0.000;0.000;2023-02-03T07:21:09;13.02;;;2.00;;
70761;SDS011;58360;0.000;0.000;2023-02-03T07:23:35;9.68;;;2.17;;
70761;SDS011;58360;0.000;0.000;2023-02-03T07:26:01;8.55;;;2.13;;
70761;SDS011;58360;0.000;0.000;2023-02-03T07:28:29;7.82;;;2.28;;
70761;SDS011;58360;0.000;0.000;2023-02-03T07:30:58;8.75;;;2.42;;
70761;SDS011;58360;0.000;0.000;2023-02-03T07:33:24;11.02;;;2.40;;
70761;SDS011;58360;0.000;0.000;2023-02-03T07:35:54;8.82;;;1.92;;
70761;SDS011;58360;0.000;0.000;2023-02-03T07:38:24;7.90;;;2.58;;
70761;SDS011;58360;0.000;0.000;2023-02-03T07:40:51;13.52;;;2.40;;
70761;SDS011;58360;0.000;0.000;2023-02-03T07:43:17;6.93;;;2.00;;
70761;SDS011;58360;0.000;0.000;2023-02-03T07:45:43;7.05;;;1.85;;
70761;SDS011;58360;0.000;0.000;2023-02-03T07:48:09;10.98;;;1.90;;
70761;SDS011;58360;0.000;0.000;2023-02-03T07:50:35;8.32;;;2.03;;
70761;SDS011;58360;0.000;0.000;2023-02-03T07:53:01;9.35;;;2.45;;
70761;SDS011;58360;0.000;0.000;2023-02-03T07:55:26;10.32;;;2.30;;
70761;SDS011;58360;0.000;0.000;2023-02-03T07:57:53;14.32;;;2.42;;
70761;SDS011;58360;0.000;0.000;2023-02-03T08:00:20;14.13;;;2.67;;
70761;SDS011;58360;0.000;0.000;2023-02-03T08:02:46;7.47;;;2.22;;
70761;SDS011;58360;0.000;0.000;2023-02-03T08:05:11;9.30;;;2.17;;
70761;SDS011;58360;0.000;0.000;2023-02-03T08:07:38;6.20;;;1.80;;
70761;SDS011;58360;0.000;0.000;2023-02-03T08:10:04;8.38;;;2.40;;
70761;SDS011;58360;0.000;0.000;2023-02-03T08:12:31;13.73;;;4.20;;
70761;SDS011;58360;0.000;0.000;2023-02-03T08:14:56;11.15;;;1.95;;
70761;SDS011;58360;0.000;0.000;2023-02-03T08:17:22;4.85;;;1.80;;
70761;SDS011;58360;0.000;0.000;2023-02-03T08:19:48;5.90;;;1.90;;
70761;SDS011;58360;0.000;0.000;2023-02-03T08:22:14;8.60;;;1.85;;
70761;SDS011;58360;0.000;0.000;2023-02-03T08:24:44;7.55;;;2.13;;
70761;SDS011;58360;0.000;0.000;2023-02-03T08:27:11;7.15;;;1.90;;
70761;SDS011;58360;0.000;0.000;2023-02-03T08:29:37;7.13;;;1.92;;
70761;SDS011;58360;0.000;0.000;2023-02-03T08:32:03;8.02;;;1.92;;
70761;SDS011;58360;0.000;0.000;2023-02-03T08:34:30;10.60;;;1.70;;
70761;SDS011;58360;0.000;0.000;2023-02-03T08:36:58;8.50;;;2.08;;
70761;SDS011;58360;0.000;0.000;2023-02-03T08:39:24;8.98;;;2.00;;
70761;SDS011;58360;0.000;0.000;2023-02-03T08:41:49;10.18;;;1.90;;
70761;SDS011;58360;0.000;0.000;2023-02-03T08:44:15;8.18;;;1.90;;
70761;SDS011;58360;0.000;0.000;2023-02-03T08:46:42;6.60;;;1.67;;
70761;SDS011;58360;0.000;0.000;2023-02-03T08:49:08;7.55;;;1.80;;
70761;SDS011;58360;0.000;0.000;2023-02-03T08:51:35;4.05;;;1.80;;
70761;SDS011;58360;0.000;0.000;2023-02-03T08:54:01;9.93;;;2.25;;
70761;SDS011;58360;0.000;0.000;2023-02-03T08:56:26;11.88;;;2.38;;
70761;SDS011;58360;0.000;0.000;2023-02-03T08:58:53;5.07;;;2.15;;
70761;SDS011;58360;0.000;0.000;2023-02-03T09:01:19;11.15;;;2.40;;
70761;SDS011;58360;0.000;0.000;2023-02-03T09:03:44;8.23;;;2.33;;
70761;SDS011;58360;0.000;0.000;2023-02-03T09:06:10;8.73;;;2.13;;
70761;SDS011;58360;0.000;0.000;2023-02-03T09:08:40;9.10;;;2.58;;
70761;SDS011;58360;0.000;0.000;2023-02-03T09:11:10;9.90;;;2.60;;
70761;SDS011;58360;0.000;0.000;2023-02-03T09:13:38;6.70;;;2.30;;
70761;SDS011;58360;0.000;0.000;2023-02-03T09:16:07;9.57;;;2.45;;
70761;SDS011;58360;0.000;0.000;2023-02-03T09:18:33;13.38;;;2.55;;
70761;SDS011;58360;0.000;0.000;2023-02-03T09:21:02;8.32;;;2.30;;
70761;SDS011;58360;0.000;0.000;2023-02-03T09:23:29;8.05;;;2.30;;
70761;SDS011;58360;0.000;0.000;2023-02-03T09:26:00;10.73;;;3.67;;
70761;SDS011;58360;0.000;0.000;2023-02-03T09:28:30;21.63;;;3.20;;
70761;SDS011;58360;0.000;0.000;2023-02-03T09:31:05;9.05;;;4.32;;
70761;SDS011;58360;0.000;0.000;2023-02-03T09:33:33;9.82;;;2.67;;
70761;SDS011;58360;0.000;0.000;2023-02-03T09:36:00;6.53;;;2.08;;
70761;SDS011;58360;0.000;0.000;2023-02-03T09:38:26;7.50;;;2.58;;
70761;SDS011;58360;0.000;0.000;2023-02-03T09:40:57;7.78;;;2.33;;
70761;SDS011;58360;0.000;0.000;2023-02-03T09:43:30;9.93;;;2.60;;
70761;SDS011;58360;0.000;0.000;2023-02-03T09:46:16;12.20;;;3.25;;
70761;SDS011;58360;0.000;0.000;2023-02-03T09:51:51;15.40;;;3.95;;
70761;SDS011;58360;0.000;0.000;2023-02-03T09:57:19;9.23;;;2.80;;
70761;SDS011;58360;0.000;0.000;2023-02-03T09:59:47;9.90;;;2.83;;
70761;SDS011;58360;0.000;0.000;2023-02-03T10:15:47;11.13;;;2.97;;
70761;SDS011;58360;0.000;0.000;2023-02-03T10:18:39;7.55;;;2.40;;
70761;SDS011;58360;0.000;0.000;2023-02-03T10:21:30;12.80;;;2.80;;
70761;SDS011;58360;0.000;0.000;2023-02-03T10:24:02;14.43;;;3.38;;
70761;SDS011;58360;0.000;0.000;2023-02-03T10:26:33;12.23;;;3.05;;
70761;SDS011;58360;0.000;0.000;2023-02-03T10:29:13;15.02;;;3.00;;
70761;SDS011;58360;0.000;0.000;2023-02-03T10:31:49;9.50;;;2.70;;
70761;SDS011;58360;0.000;0.000;2023-02-03T10:34:15;12.52;;;2.90;;
70761;SDS011;58360;0.000;0.000;2023-02-03T10:36:54;18.92;;;3.83;;
70761;SDS011;58360;0.000;0.000;2023-02-03T10:41:57;9.93;;;2.55;;
70761;SDS011;58360;0.000;0.000;2023-02-03T10:44:26;14.48;;;2.90;;
70761;SDS011;58360;0.000;0.000;2023-02-03T10:46:59;14.55;;;3.00;;
70761;SDS011;58360;0.000;0.000;2023-02-03T10:49:25;7.70;;;2.72;;
70761;SDS011;58360;0.000;0.000;2023-02-03T10:51:53;16.30;;;3.42;;
70761;SDS011;58360;0.000;0.000;2023-02-03T10:54:40;8.82;;;2.28;;
70761;SDS011;58360;0.000;0.000;2023-02-03T10:57:09;9.00;;;3.00;;
70761;SDS011;58360;0.000;0.000;2023-02-03T10:59:42;8.05;;;2.30;;
70761;SDS011;58360;0.000;0.000;2023-02-03T11:02:26;13.05;;;2.47;;
70761;SDS011;58360;0.000;0.000;2023-02-03T11:07:43;15.63;;;2.42;;
70761;SDS011;58360;0.000;0.000;2023-02-03T11:12:55;8.82;;;2.00;;
70761;SDS011;58360;0.000;0.000;2023-02-03T11:15:53;7.88;;;1.90;;
70761;SDS011;58360;0.000;0.000;2023-02-03T11:18:35;7.95;;;2.03;;
70761;SDS011;58360;0.000;0.000;2023-02-03T11:21:27;6.03;;;1.63;;
70761;SDS011;58360;0.000;0.000;2023-02-03T11:24:00;10.88;;;2.17;;
70761;SDS011;58360;0.000;0.000;2023-02-03T11:26:36;8.07;;;2.42;;
70761;SDS011;58360;0.000;0.000;2023-02-03T11:29:14;12.07;;;1.73;;
70761;SDS011;58360;0.000;0.000;2023-02-03T11:31:48;7.22;;;2.15;;
70761;SDS011;58360;0.000;0.000;2023-02-03T11:34:16;5.18;;;2.00;;
70761;SDS011;58360;0.000;0.000;2023-02-03T11:36:48;9.38;;;2.25;;
70761;SDS011;58360;0.000;0.000;2023-02-03T11:41:44;7.32;;;1.83;;
70761;SDS011;58360;0.000;0.000;2023-02-03T11:44:14;9.38;;;2.10;;
70761;SDS011;58360;0.000;0.000;2023-02-03T11:46:40;9.10;;;2.10;;
70761;SDS011;58360;0.000;0.000;2023-02-03T11:49:15;15.45;;;2.33;;
70761;SDS011;58360;0.000;0.000;2023-02-03T11:52:40;9.35;;;2.67;;
70761;SDS011;58360;0.000;0.000;2023-02-03T11:54:55;11.05;;;2.40;;
70761;SDS011;58360;0.000;0.000;2023-02-03T11:57:44;11.65;;;2.10;;
70761;SDS011;58360;0.000;0.000;2023-02-03T12:00:24;8.70;;;2.20;;
70761;SDS011;58360;0.000;0.000;2023-02-03T12:06:39;8.43;;;2.55;;
70761;SDS011;58360;0.000;0.000;2023-02-03T12:34:09;15.07;;;2.80;;
70761;SDS011;58360;0.000;0.000;2023-02-03T12:36:48;7.15;;;2.03;;
70761;SDS011;58360;0.000;0.000;2023-02-03T12:39:43;10.20;;;2.33;;
70761;SDS011;58360;0.000;0.000;2023-02-03T12:42:16;5.03;;;1.65;;
70761;SDS011;58360;0.000;0.000;2023-02-03T12:47:43;10.10;;;2.00;;
70761;SDS011;58360;0.000;0.000;2023-02-03T12:53:02;9.13;;;2.05;;
70761;SDS011;58360;0.000;0.000;2023-02-03T12:55:51;5.43;;;1.90;;
70761;SDS011;58360;0.000;0.000;2023-02-03T12:58:43;10.52;;;1.90;;
70761;SDS011;58360;0.000;0.000;2023-02-03T13:09:30;8.57;;;1.92;;
70761;SDS011;58360;0.000;0.000;2023-02-03T13:12:10;9.90;;;2.05;;
70761;SDS011;58360;0.000;0.000;2023-02-03T13:17:55;8.38;;;2.25;;
70761;SDS011;58360;0.000;0.000;2023-02-03T13:20:25;12.63;;;2.22;;
70761;SDS011;58360;0.000;0.000;2023-02-03T13:22:55;18.60;;;2.47;;
70761;SDS011;58360;0.000;0.000;2023-02-03T13:25:26;8.90;;;2.30;;
70761;SDS011;58360;0.000;0.000;2023-02-03T13:33:42;9.73;;;2.42;;
70761;SDS011;58360;0.000;0.000;2023-02-03T13:41:38;16.05;;;3.58;;
70761;SDS011;58360;0.000;0.000;2023-02-03T13:44:11;12.88;;;3.03;;
70761;SDS011;58360;0.000;0.000;2023-02-03T13:46:41;10.60;;;2.83;;
70761;SDS011;58360;0.000;0.000;2023-02-03T13:49:07;7.07;;;2.95;;
70761;SDS011;58360;0.000;0.000;2023-02-03T13:51:37;7.55;;;2.40;;
70761;SDS011;58360;0.000;0.000;2023-02-03T13:54:13;6.03;;;2.92;;
70761;SDS011;58360;0.000;0.000;2023-02-03T13:56:56;9.30;;;2.45;;
70761;SDS011;58360;0.000;0.000;2023-02-03T14:02:39;7.93;;;2.90;;
70761;SDS011;58360;0.000;0.000;2023-02-03T14:15:33;17.60;;;3.08;;
70761;SDS011;58360;0.000;0.000;2023-02-03T14:21:10;11.68;;;3.33;;
70761;SDS011;58360;0.000;0.000;2023-02-03T14:23:45;8.10;;;2.37;;
70761;SDS011;58360;0.000;0.000;2023-02-03T14:26:27;12.98;;;2.80;;
70761;SDS011;58360;0.000;0.000;2023-02-03T14:32:46;8.00;;;2.50;;
70761;SDS011;58360;0.000;0.000;2023-02-03T14:35:17;14.20;;;2.30;;
70761;SDS011;58360;0.000;0.000;2023-02-03T14:37:55;7.03;;;2.25;;
70761;SDS011;58360;0.000;0.000;2023-02-03T14:48:51;10.70;;;2.63;;
70761;SDS011;58360;0.000;0.000;2023-02-03T15:08:10;11.95;;;2.35;;
70761;SDS011;58360;0.000;0.000;2023-02-03T15:13:54;15.70;;;2.42;;
70761;SDS011;58360;0.000;0.000;2023-02-03T15:16:39;10.85;;;2.13;;
70761;SDS011;58360;0.000;0.000;2023-02-03T15:19:17;13.43;;;2.67;;
70761;SDS011;58360;0.000;0.000;2023-02-03T15:21:46;14.30;;;3.13;;
70761;SDS011;58360;0.000;0.000;2023-02-03T15:24:16;9.65;;;2.70;;
70761;SDS011;58360;0.000;0.000;2023-02-03T15:26:46;9.18;;;2.65;;
70761;SDS011;58360;0.000;0.000;2023-02-03T15:29:32;13.95;;;3.15;;
70761;SDS011;58360;0.000;0.000;2023-02-03T15:32:03;10.63;;;2.50;;
70761;SDS011;58360;0.000;0.000;2023-02-03T15:34:44;6.63;;;2.33;;
70761;SDS011;58360;0.000;0.000;2023-02-03T15:37:46;10.60;;;2.88;;
70761;SDS011;58360;0.000;0.000;2023-02-03T15:40:20;8.43;;;2.80;;
70761;SDS011;58360;0.000;0.000;2023-02-03T15:42:57;14.57;;;3.08;;
70761;SDS011;58360;0.000;0.000;2023-02-03T15:45:30;10.52;;;2.83;;
70761;SDS011;58360;0.000;0.000;2023-02-03T15:50:38;10.65;;;2.78;;
70761;SDS011;58360;0.000;0.000;2023-02-03T15:53:14;15.25;;;3.10;;
70761;SDS011;58360;0.000;0.000;2023-02-03T15:55:46;6.70;;;2.67;;
70761;SDS011;58360;0.000;0.000;2023-02-03T15:58:28;8.15;;;2.85;;
70761;SDS011;58360;0.000;0.000;2023-02-03T16:00:57;13.45;;;3.40;;
70761;SDS011;58360;0.000;0.000;2023-02-03T16:03:27;10.20;;;3.10;;
70761;SDS011;58360;0.000;0.000;2023-02-03T16:06:24;9.40;;;3.22;;
70761;SDS011;58360;0.000;0.000;2023-02-03T16:08:51;15.82;;;3.47;;
70761;SDS011;58360;0.000;0.000;2023-02-03T16:11:26;11.98;;;3.63;;
70761;SDS011;58360;0.000;0.000;2023-02-03T16:13:57;9.70;;;2.95;;
70761;SDS011;58360;0.000;0.000;2023-02-03T16:16:29;15.40;;;3.22;;
70761;SDS011;58360;0.000;0.000;2023-02-03T16:19:02;11.23;;;4.30;;
70761;SDS011;58360;0.000;0.000;2023-02-03T16:21:51;13.10;;;3.38;;
70761;SDS011;58360;0.000;0.000;2023-02-03T16:27:19;10.98;;;3.47;;
70761;SDS011;58360;0.000;0.000;2023-02-03T16:29:46;9.57;;;3.10;;
70761;SDS011;58360;0.000;0.000;2023-02-03T16:32:30;11.02;;;3.25;;
70761;SDS011;58360;0.000;0.000;2023-02-03T16:35:15;15.43;;;3.50;;
70761;SDS011;58360;0.000;0.000;2023-02-03T16:38:15;11.43;;;3.10;;
70761;SDS011;58360;0.000;0.000;2023-02-03T16:41:00;11.15;;;3.53;;
70761;SDS011;58360;0.000;0.000;2023-02-03T16:43:46;11.98;;;3.83;;
70761;SDS011;58360;0.000;0.000;2023-02-03T16:46:30;17.77;;;3.80;;
70761;SDS011;58360;0.000;0.000;2023-02-03T16:49:14;15.27;;;4.32;;
70761;SDS011;58360;0.000;0.000;2023-02-03T16:51:58;13.55;;;3.85;;
70761;SDS011;58360;0.000;0.000;2023-02-03T16:54:25;12.15;;;3.58;;
70761;SDS011;58360;0.000;0.000;2023-02-03T16:56:52;20.67;;;3.85;;
70761;SDS011;58360;0.000;0.000;2023-02-03T16:59:18;11.48;;;4.50;;
70761;SDS011;58360;0.000;0.000;2023-02-03T17:01:43;16.52;;;4.00;;
70761;SDS011;58360;0.000;0.000;2023-02-03T17:04:09;16.20;;;4.10;;
70761;SDS011;58360;0.000;0.000;2023-02-03T17:06:38;20.60;;;4.30;;
70761;SDS011;58360;0.000;0.000;2023-02-03T17:09:05;14.05;;;3.70;;
70761;SDS011;58360;0.000;0.000;2023-02-03T17:11:31;12.93;;;3.63;;
70761;SDS011;58360;0.000;0.000;2023-02-03T17:13:57;16.05;;;3.88;;
70761;SDS011;58360;0.000;0.000;2023-02-03T17:16:23;19.13;;;4.40;;
70761;SDS011;58360;0.000;0.000;2023-02-03T17:18:50;19.17;;;4.10;;
70761;SDS011;58360;0.000;0.000;2023-02-03T17:21:17;18.15;;;3.47;;
70761;SDS011;58360;0.000;0.000;2023-02-03T17:23:45;13.85;;;3.78;;
70761;SDS011;58360;0.000;0.000;2023-02-03T17:26:11;15.18;;;3.60;;
70761;SDS011;58360;0.000;0.000;2023-02-03T17:28:38;15.40;;;3.70;;
70761;SDS011;58360;0.000;0.000;2023-02-03T17:31:05;14.52;;;3.60;;
70761;SDS011;58360;0.000;0.000;2023-02-03T17:33:31;20.67;;;4.32;;
70761;SDS011;58360;0.000;0.000;2023-02-03T17:36:09;19.27;;;4.22;;
70761;SDS011;58360;0.000;0.000;2023-02-03T17:38:41;10.65;;;3.85;;
70761;SDS011;58360;0.000;0.000;2023-02-03T17:41:09;12.35;;;3.53;;
70761;SDS011;58360;0.000;0.000;2023-02-03T17:43:36;15.73;;;3.58;;
70761;SDS011;58360;0.000;0.000;2023-02-03T17:46:02;13.65;;;3.80;;
70761;SDS011;58360;0.000;0.000;2023-02-03T17:48:28;13.77;;;3.80;;
70761;SDS011;58360;0.000;0.000;2023-02-03T17:50:54;14.15;;;4.47;;
70761;SDS011;58360;0.000;0.000;2023-02-03T17:53:28;13.10;;;4.07;;
70761;SDS011;58360;0.000;0.000;2023-02-03T17:55:54;19.70;;;5.20;;
70761;SDS011;58360;0.000;0.000;2023-02-03T17:58:20;12.40;;;4.07;;